sensor_id;sensor_type;location;lat;lon;timestamp;pressure;altitude;pressure_sealevel;temperature;humidity
20027;BME280;10174;42.688;23.344;2023-06-14T00:02:16;95021.63;;;16.31;100.00
20027;BME280;10174;42.688;23.344;2023-06-14T00:04:41;95028.59;;;16.46;100.00
20027;BME280;10174;42.688;23.344;2023-06-14T00:07:08;95049.00;;;16.66;100.00
20027;BME280;10174;42.688;23.344;2023-06-14T00:09:34;95038.03;;;16.71;100.00
20027;BME280;10174;42.688;23.344;2023-06-14T00:12:00;95020.53;;;16.54;100.00
20027;BME280;10174;42.688;23.344;2023-06-14T00:14:25;95041.38;;;16.68;100.00
20027;BME280;10174;42.688;23.344;2023-06-14T00:16:50;95033.09;;;16.73;100.00
20027;BME280;10174;42.688;23.344;2023-06-14T00:19:18;95008.94;;;16.63;100.00
20027;BME280;10174;42.688;23.344;2023-06-14T00:21:45;94932.53;;;16.15;100.00
20027;BME280;10174;42.688;23.344;2023-06-14T00:24:11;95021.47;;;16.72;100.00
20027;BME280;10174;42.688;23.344;2023-06-14T00:26:36;95031.66;;;16.89;100.00
20027;BME280;10174;42.688;23.344;2023-06-14T00:29:02;95030.56;;;16.90;100.00
20027;BME280;10174;42.688;23.344;2023-06-14T00:31:27;95001.19;;;16.70;100.00
20027;BME280;10174;42.688;23.344;2023-06-14T00:33:52;95009.53;;;16.82;100.00
20027;BME280;10174;42.688;23.344;2023-06-14T00:36:18;95008.38;;;16.74;100.00
20027;BME280;10174;42.688;23.344;2023-06-14T00:38:43;94965.06;;;16.61;100.00
20027;BME280;10174;42.688;23.344;2023-06-14T00:41:09;95016.59;;;16.83;100.00
20027;BME280;10174;42.688;23.344;2023-06-14T00:43:34;94986.50;;;16.71;100.00
20027;BME280;10174;42.688;23.344;2023-06-14T00:46:00;95015.69;;;16.88;100.00
20027;BME280;10174;42.688;23.344;2023-06-14T00:48:25;95020.19;;;16.92;100.00
20027;BME280;10174;42.688;23.344;2023-06-14T00:50:52;95012.50;;;16.95;100.00
20027;BME280;10174;42.688;23.344;2023-06-14T00:53:18;94999.09;;;16.89;100.00
20027;BME280;10174;42.688;23.344;2023-06-14T00:55:48;94970.31;;;16.57;100.00
20027;BME280;10174;42.688;23.344;2023-06-14T00:58:13;95017.53;;;17.01;100.00
20027;BME280;10174;42.688;23.344;2023-06-14T01:00:39;94961.25;;;16.62;100.00
20027;BME280;10174;42.688;23.344;2023-06-14T01:03:05;95007.22;;;16.89;100.00
20027;BME280;10174;42.688;23.344;2023-06-14T01:05:31;94808.78;;;15.57;100.00
20027;BME280;10174;42.688;23.344;2023-06-14T01:11:05;95017.38;;;16.84;100.00
20027;BME280;10174;42.688;23.344;2023-06-14T01:13:34;94913.66;;;16.24;100.00
20027;BME280;10174;42.688;23.344;2023-06-14T01:16:01;94987.75;;;16.65;100.00
20027;BME280;10174;42.688;23.344;2023-06-14T01:18:28;94980.53;;;16.60;100.00
20027;BME280;10174;42.688;23.344;2023-06-14T01:20:55;95019.44;;;16.78;100.00
20027;BME280;10174;42.688;23.344;2023-06-14T01:23:22;94882.13;;;16.06;100.00
20027;BME280;10174;42.688;23.344;2023-06-14T01:25:48;95002.16;;;16.74;100.00
20027;BME280;10174;42.688;23.344;2023-06-14T01:28:19;95016.84;;;16.73;100.00
20027;BME280;10174;42.688;23.344;2023-06-14T01:30:47;95011.41;;;16.73;100.00
20027;BME280;10174;42.688;23.344;2023-06-14T01:33:18;95019.84;;;16.71;100.00
20027;BME280;10174;42.688;23.344;2023-06-14T01:35:46;94997.00;;;16.64;100.00
20027;BME280;10174;42.688;23.344;2023-06-14T01:38:13;95001.09;;;16.61;100.00
20027;BME280;10174;42.688;23.344;2023-06-14T01:40:39;94999.78;;;16.50;100.00
20027;BME280;10174;42.688;23.344;2023-06-14T01:43:05;95006.97;;;16.54;100.00
20027;BME280;10174;42.688;23.344;2023-06-14T01:45:32;95016.34;;;16.48;100.00
20027;BME280;10174;42.688;23.344;2023-06-14T01:47:59;94997.13;;;16.36;100.00
20027;BME280;10174;42.688;23.344;2023-06-14T01:50:29;95015.34;;;16.44;100.00
20027;BME280;10174;42.688;23.344;2023-06-14T01:52:55;94902.97;;;15.82;100.00
20027;BME280;10174;42.688;23.344;2023-06-14T01:55:20;95017.34;;;16.52;100.00
20027;BME280;10174;42.688;23.344;2023-06-14T01:57:47;94913.41;;;15.75;100.00
20027;BME280;10174;42.688;23.344;2023-06-14T02:00:14;94927.13;;;15.93;100.00
20027;BME280;10174;42.688;23.344;2023-06-14T02:02:40;95007.81;;;16.41;100.00
20027;BME280;10174;42.688;23.344;2023-06-14T02:05:06;95016.56;;;16.38;100.00
20027;BME280;10174;42.688;23.344;2023-06-14T02:07:31;94969.13;;;16.04;100.00
20027;BME280;10174;42.688;23.344;2023-06-14T02:09:57;95028.53;;;16.37;100.00
20027;BME280;10174;42.688;23.344;2023-06-14T02:12:22;95026.28;;;16.16;100.00
20027;BME280;10174;42.688;23.344;2023-06-14T02:14:48;94880.81;;;15.30;100.00
20027;BME280;10174;42.688;23.344;2023-06-14T02:17:14;95045.13;;;16.21;100.00
20027;BME280;10174;42.688;23.344;2023-06-14T02:19:40;95020.47;;;16.09;100.00
20027;BME280;10174;42.688;23.344;2023-06-14T02:22:05;95031.09;;;16.19;100.00
20027;BME280;10174;42.688;23.344;2023-06-14T02:24:31;95031.81;;;16.11;100.00
20027;BME280;10174;42.688;23.344;2023-06-14T02:26:56;95008.66;;;16.05;100.00
20027;BME280;10174;42.688;23.344;2023-06-14T02:29:21;95017.09;;;16.03;100.00
20027;BME280;10174;42.688;23.344;2023-06-14T02:31:47;95043.34;;;16.17;100.00
20027;BME280;10174;42.688;23.344;2023-06-14T02:34:14;95043.94;;;16.14;100.00
20027;BME280;10174;42.688;23.344;2023-06-14T02:36:42;95049.59;;;16.03;100.00
20027;BME280;10174;42.688;23.344;2023-06-14T02:39:10;95006.50;;;15.79;100.00
20027;BME280;10174;42.688;23.344;2023-06-14T02:41:36;95046.00;;;15.94;100.00
20027;BME280;10174;42.688;23.344;2023-06-14T02:44:01;94998.66;;;15.64;100.00
20027;BME280;10174;42.688;23.344;2023-06-14T02:46:27;94995.06;;;15.68;100.00
20027;BME280;10174;42.688;23.344;2023-06-14T02:48:52;95046.63;;;15.91;100.00
20027;BME280;10174;42.688;23.344;2023-06-14T02:51:17;94957.06;;;15.46;100.00
20027;BME280;10174;42.688;23.344;2023-06-14T02:53:43;95029.78;;;15.80;100.00
20027;BME280;10174;42.688;23.344;2023-06-14T02:56:09;94934.13;;;15.16;100.00
20027;BME280;10174;42.688;23.344;2023-06-14T02:58:36;95038.28;;;15.88;100.00
20027;BME280;10174;42.688;23.344;2023-06-14T03:01:01;95049.50;;;15.95;100.00
20027;BME280;10174;42.688;23.344;2023-06-14T03:03:29;95049.69;;;15.98;100.00
20027;BME280;10174;42.688;23.344;2023-06-14T03:05:55;95061.06;;;16.00;100.00
20027;BME280;10174;42.688;23.344;2023-06-14T03:08:20;95041.19;;;15.91;100.00
20027;BME280;10174;42.688;23.344;2023-06-14T03:10:46;95052.22;;;15.95;100.00
20027;BME280;10174;42.688;23.344;2023-06-14T03:13:12;95051.81;;;15.88;100.00
20027;BME280;10174;42.688;23.344;2023-06-14T03:15:38;95060.25;;;15.86;100.00
20027;BME280;10174;42.688;23.344;2023-06-14T03:18:04;94946.56;;;15.17;100.00
20027;BME280;10174;42.688;23.344;2023-06-14T03:20:30;95041.41;;;15.81;100.00
20027;BME280;10174;42.688;23.344;2023-06-14T03:22:59;95063.66;;;15.92;100.00
20027;BME280;10174;42.688;23.344;2023-06-14T03:25:25;95044.59;;;15.69;100.00
20027;BME280;10174;42.688;23.344;2023-06-14T03:27:51;95056.63;;;15.63;100.00
20027;BME280;10174;42.688;23.344;2023-06-14T03:30:16;95062.44;;;15.70;100.00
20027;BME280;10174;42.688;23.344;2023-06-14T03:32:42;95064.88;;;15.85;100.00
20027;BME280;10174;42.688;23.344;2023-06-14T03:35:07;95064.88;;;15.85;100.00
20027;BME280;10174;42.688;23.344;2023-06-14T03:37:33;95034.97;;;15.63;100.00
20027;BME280;10174;42.688;23.344;2023-06-14T03:39:58;95080.53;;;15.89;100.00
20027;BME280;10174;42.688;23.344;2023-06-14T03:42:23;95050.41;;;15.76;100.00
20027;BME280;10174;42.688;23.344;2023-06-14T03:44:49;95072.28;;;15.94;100.00
20027;BME280;10174;42.688;23.344;2023-06-14T03:47:15;95046.81;;;15.81;100.00
20027;BME280;10174;42.688;23.344;2023-06-14T03:49:41;95059.25;;;15.96;100.00
20027;BME280;10174;42.688;23.344;2023-06-14T03:52:06;95048.91;;;15.98;100.00
20027;BME280;10174;42.688;23.344;2023-06-14T03:54:32;95047.81;;;15.99;100.00
20027;BME280;10174;42.688;23.344;2023-06-14T03:56:58;95074.84;;;16.27;100.00
20027;BME280;10174;42.688;23.344;2023-06-14T03:59:24;95076.81;;;16.35;100.00
20027;BME280;10174;42.688;23.344;2023-06-14T04:01:49;95064.72;;;16.18;100.00
20027;BME280;10174;42.688;23.344;2023-06-14T04:04:14;95082.56;;;16.19;100.00
20027;BME280;10174;42.688;23.344;2023-06-14T04:06:41;95080.34;;;16.21;100.00
20027;BME280;10174;42.688;23.344;2023-06-14T04:09:08;95066.19;;;16.25;100.00
20027;BME280;10174;42.688;23.344;2023-06-14T04:11:34;95063.88;;;16.32;100.00
20027;BME280;10174;42.688;23.344;2023-06-14T04:13:59;95053.59;;;16.43;100.00
20027;BME280;10174;42.688;23.344;2023-06-14T04:16:24;95079.56;;;16.58;100.00
20027;BME280;10174;42.688;23.344;2023-06-14T04:18:50;95063.00;;;16.59;100.00
20027;BME280;10174;42.688;23.344;2023-06-14T04:21:18;95061.84;;;16.74;100.00
20027;BME280;10174;42.688;23.344;2023-06-14T04:23:43;95062.84;;;16.78;100.00
20027;BME280;10174;42.688;23.344;2023-06-14T04:26:09;95053.19;;;16.72;100.00
20027;BME280;10174;42.688;23.344;2023-06-14T04:28:35;95059.41;;;16.86;100.00
20027;BME280;10174;42.688;23.344;2023-06-14T04:31:08;95065.63;;;16.87;100.00
20027;BME280;10174;42.688;23.344;2023-06-14T04:33:37;95038.75;;;16.63;100.00
20027;BME280;10174;42.688;23.344;2023-06-14T04:36:09;95071.75;;;16.79;100.00
20027;BME280;10174;42.688;23.344;2023-06-14T04:38:37;94963.09;;;16.07;100.00
20027;BME280;10174;42.688;23.344;2023-06-14T04:41:03;95060.91;;;16.56;100.00
20027;BME280;10174;42.688;23.344;2023-06-14T04:43:28;95036.72;;;16.46;100.00
20027;BME280;10174;42.688;23.344;2023-06-14T04:45:53;95047.47;;;16.51;100.00
20027;BME280;10174;42.688;23.344;2023-06-14T04:48:21;95053.94;;;16.64;100.00
20027;BME280;10174;42.688;23.344;2023-06-14T04:50:47;95077.84;;;16.62;100.00
20027;BME280;10174;42.688;23.344;2023-06-14T04:53:13;95037.59;;;16.55;100.00
20027;BME280;10174;42.688;23.344;2023-06-14T04:55:38;95080.59;;;16.84;100.00
20027;BME280;10174;42.688;23.344;2023-06-14T04:58:04;95083.50;;;16.88;100.00
20027;BME280;10174;42.688;23.344;2023-06-14T05:00:30;95092.56;;;17.06;100.00
20027;BME280;10174;42.688;23.344;2023-06-14T05:02:55;95094.16;;;17.07;100.00
20027;BME280;10174;42.688;23.344;2023-06-14T05:05:22;95088.47;;;17.17;100.00
20027;BME280;10174;42.688;23.344;2023-06-14T05:07:49;95088.28;;;17.36;100.00
20027;BME280;10174;42.688;23.344;2023-06-14T05:10:14;95099.28;;;17.71;100.00
20027;BME280;10174;42.688;23.344;2023-06-14T05:12:40;95086.72;;;17.84;99.69
20027;BME280;10174;42.688;23.344;2023-06-14T05:15:09;95075.84;;;17.84;98.30
20027;BME280;10174;42.688;23.344;2023-06-14T05:17:34;95088.47;;;18.38;94.72
20027;BME280;10174;42.688;23.344;2023-06-14T05:20:01;95089.88;;;18.18;94.31
20027;BME280;10174;42.688;23.344;2023-06-14T05:22:26;95078.53;;;18.33;93.58
20027;BME280;10174;42.688;23.344;2023-06-14T05:24:52;95109.31;;;19.03;90.17
20027;BME280;10174;42.688;23.344;2023-06-14T05:27:17;95083.66;;;19.22;87.87
20027;BME280;10174;42.688;23.344;2023-06-14T05:29:43;95104.66;;;19.13;88.16
20027;BME280;10174;42.688;23.344;2023-06-14T05:32:08;95055.03;;;18.63;89.96
20027;BME280;10174;42.688;23.344;2023-06-14T05:34:33;95020.50;;;18.46;90.63
20027;BME280;10174;42.688;23.344;2023-06-14T05:36:59;95107.69;;;19.20;88.98
20027;BME280;10174;42.688;23.344;2023-06-14T05:39:25;95110.09;;;18.78;90.01
20027;BME280;10174;42.688;23.344;2023-06-14T05:41:50;95105.91;;;18.72;91.92
20027;BME280;10174;42.688;23.344;2023-06-14T05:44:16;95127.22;;;18.69;92.54
20027;BME280;10174;42.688;23.344;2023-06-14T05:46:41;95107.53;;;18.46;92.84
20027;BME280;10174;42.688;23.344;2023-06-14T05:49:06;95119.06;;;18.78;93.02
20027;BME280;10174;42.688;23.344;2023-06-14T05:51:32;95114.72;;;18.51;91.65
20027;BME280;10174;42.688;23.344;2023-06-14T05:53:57;95121.28;;;18.50;91.67
20027;BME280;10174;42.688;23.344;2023-06-14T05:56:23;95132.00;;;18.73;92.75
20027;BME280;10174;42.688;23.344;2023-06-14T05:58:49;95135.53;;;18.82;90.67
20027;BME280;10174;42.688;23.344;2023-06-14T06:01:14;95110.56;;;18.62;91.00
20027;BME280;10174;42.688;23.344;2023-06-14T06:03:40;95107.69;;;18.76;90.60
20027;BME280;10174;42.688;23.344;2023-06-14T06:06:06;95064.78;;;18.38;90.25
20027;BME280;10174;42.688;23.344;2023-06-14T06:08:33;95033.44;;;18.41;89.13
20027;BME280;10174;42.688;23.344;2023-06-14T06:10:58;95113.00;;;18.99;89.08
20027;BME280;10174;42.688;23.344;2023-06-14T06:13:25;95137.16;;;19.18;88.23
20027;BME280;10174;42.688;23.344;2023-06-14T06:15:50;95130.53;;;19.45;86.47
20027;BME280;10174;42.688;23.344;2023-06-14T06:18:15;95041.41;;;18.81;87.83
20027;BME280;10174;42.688;23.344;2023-06-14T06:20:41;95144.69;;;19.21;88.74
20027;BME280;10174;42.688;23.344;2023-06-14T06:23:06;95141.16;;;18.77;89.29
20027;BME280;10174;42.688;23.344;2023-06-14T06:25:33;95121.81;;;19.04;88.92
20027;BME280;10174;42.688;23.344;2023-06-14T06:27:58;95047.81;;;18.76;88.40
20027;BME280;10174;42.688;23.344;2023-06-14T06:30:24;95132.38;;;18.97;90.15
20027;BME280;10174;42.688;23.344;2023-06-14T06:32:50;95129.75;;;18.75;89.84
20027;BME280;10174;42.688;23.344;2023-06-14T06:35:16;95048.47;;;18.29;88.41
20027;BME280;10174;42.688;23.344;2023-06-14T06:37:42;95134.44;;;18.83;88.67
20027;BME280;10174;42.688;23.344;2023-06-14T06:40:08;95050.97;;;18.00;91.75
20027;BME280;10174;42.688;23.344;2023-06-14T06:42:34;95146.94;;;18.93;90.71
20027;BME280;10174;42.688;23.344;2023-06-14T06:44:59;95139.72;;;19.05;89.55
20027;BME280;10174;42.688;23.344;2023-06-14T06:47:25;95131.91;;;18.95;90.83
20027;BME280;10174;42.688;23.344;2023-06-14T06:49:50;95100.31;;;18.50;87.63
20027;BME280;10174;42.688;23.344;2023-06-14T06:52:16;95144.81;;;18.81;88.28
20027;BME280;10174;42.688;23.344;2023-06-14T06:54:41;95149.78;;;18.70;90.74
20027;BME280;10174;42.688;23.344;2023-06-14T06:57:07;95122.56;;;18.52;91.25
20027;BME280;10174;42.688;23.344;2023-06-14T06:59:33;95149.63;;;18.66;90.68
20027;BME280;10174;42.688;23.344;2023-06-14T07:01:59;95158.47;;;18.90;90.56
20027;BME280;10174;42.688;23.344;2023-06-14T07:04:24;95145.16;;;18.88;91.06
20027;BME280;10174;42.688;23.344;2023-06-14T07:06:50;95117.94;;;18.71;90.20
20027;BME280;10174;42.688;23.344;2023-06-14T07:09:15;95117.44;;;18.68;91.67
20027;BME280;10174;42.688;23.344;2023-06-14T07:11:42;95152.06;;;18.94;90.83
20027;BME280;10174;42.688;23.344;2023-06-14T07:14:08;95022.22;;;18.33;89.73
20027;BME280;10174;42.688;23.344;2023-06-14T07:16:33;95134.19;;;19.58;88.80
20027;BME280;10174;42.688;23.344;2023-06-14T07:18:59;95142.66;;;19.83;87.08
20027;BME280;10174;42.688;23.344;2023-06-14T07:21:25;95115.78;;;19.55;87.95
20027;BME280;10174;42.688;23.344;2023-06-14T07:23:52;95147.13;;;19.79;87.46
20027;BME280;10174;42.688;23.344;2023-06-14T07:26:18;95038.22;;;18.96;88.64
20027;BME280;10174;42.688;23.344;2023-06-14T07:28:44;95152.25;;;19.89;88.78
20027;BME280;10174;42.688;23.344;2023-06-14T07:31:12;95042.47;;;19.80;86.04
20027;BME280;10174;42.688;23.344;2023-06-14T07:33:38;95077.69;;;19.85;84.29
20027;BME280;10174;42.688;23.344;2023-06-14T07:36:03;95098.28;;;20.33;83.02
20027;BME280;10174;42.688;23.344;2023-06-14T07:38:29;95124.31;;;20.81;81.22
20027;BME280;10174;42.688;23.344;2023-06-14T07:40:54;95018.00;;;20.22;81.57
20027;BME280;10174;42.688;23.344;2023-06-14T07:43:20;95117.53;;;20.67;82.68
20027;BME280;10174;42.688;23.344;2023-06-14T07:45:45;95050.06;;;21.22;76.07
20027;BME280;10174;42.688;23.344;2023-06-14T07:48:11;95117.41;;;22.09;75.05
20027;BME280;10174;42.688;23.344;2023-06-14T07:50:36;95126.06;;;21.99;76.10
20027;BME280;10174;42.688;23.344;2023-06-14T07:53:02;95061.56;;;21.61;75.14
20027;BME280;10174;42.688;23.344;2023-06-14T07:55:27;95138.06;;;22.19;74.62
20027;BME280;10174;42.688;23.344;2023-06-14T07:57:53;95157.22;;;22.44;74.18
20027;BME280;10174;42.688;23.344;2023-06-14T08:00:20;95064.84;;;21.21;76.07
20027;BME280;10174;42.688;23.344;2023-06-14T08:02:46;95054.78;;;20.58;76.21
20027;BME280;10174;42.688;23.344;2023-06-14T08:05:11;95148.28;;;21.18;76.95
20027;BME280;10174;42.688;23.344;2023-06-14T08:07:38;95139.94;;;21.48;74.74
20027;BME280;10174;42.688;23.344;2023-06-14T08:10:05;95081.34;;;21.12;73.92
20027;BME280;10174;42.688;23.344;2023-06-14T08:12:30;95174.19;;;21.45;73.52
20027;BME280;10174;42.688;23.344;2023-06-14T08:14:56;95177.78;;;21.79;72.43
20027;BME280;10174;42.688;23.344;2023-06-14T08:17:21;95157.81;;;21.45;75.29
20027;BME280;10174;42.688;23.344;2023-06-14T08:19:46;95180.22;;;21.60;74.95
20027;BME280;10174;42.688;23.344;2023-06-14T08:22:12;95163.38;;;21.37;75.88
20027;BME280;10174;42.688;23.344;2023-06-14T08:24:37;95150.28;;;21.42;75.66
20027;BME280;10174;42.688;23.344;2023-06-14T08:27:03;95172.69;;;21.57;76.17
20027;BME280;10174;42.688;23.344;2023-06-14T08:29:28;95170.69;;;21.78;75.63
20027;BME280;10174;42.688;23.344;2023-06-14T08:31:56;95160.69;;;21.82;72.91
20027;BME280;10174;42.688;23.344;2023-06-14T08:34:22;95155.28;;;22.32;70.28
20027;BME280;10174;42.688;23.344;2023-06-14T08:36:50;95132.50;;;22.52;69.90
20027;BME280;10174;42.688;23.344;2023-06-14T08:39:15;95169.09;;;24.30;65.50
20027;BME280;10174;42.688;23.344;2023-06-14T08:41:43;95146.50;;;23.44;66.25
20027;BME280;10174;42.688;23.344;2023-06-14T08:44:11;95163.78;;;23.33;65.43
20027;BME280;10174;42.688;23.344;2023-06-14T08:46:37;95168.13;;;24.22;62.51
20027;BME280;10174;42.688;23.344;2023-06-14T08:49:03;95160.28;;;25.86;57.63
20027;BME280;10174;42.688;23.344;2023-06-14T08:51:31;95027.91;;;27.32;50.61
20027;BME280;10174;42.688;23.344;2023-06-14T08:54:02;95139.00;;;28.07;50.23
20027;BME280;10174;42.688;23.344;2023-06-14T08:56:29;95084.22;;;26.43;52.45
20027;BME280;10174;42.688;23.344;2023-06-14T08:58:56;95141.44;;;28.16;49.90
20027;BME280;10174;42.688;23.344;2023-06-14T09:01:23;95152.59;;;28.31;49.69
20027;BME280;10174;42.688;23.344;2023-06-14T09:03:49;95149.66;;;28.57;48.31
20027;BME280;10174;42.688;23.344;2023-06-14T09:06:15;95135.69;;;27.95;47.61
20027;BME280;10174;42.688;23.344;2023-06-14T09:08:45;95154.03;;;26.31;51.54
20027;BME280;10174;42.688;23.344;2023-06-14T09:11:13;95152.75;;;25.59;54.67
20027;BME280;10174;42.688;23.344;2023-06-14T09:13:39;95126.06;;;25.64;54.61
20027;BME280;10174;42.688;23.344;2023-06-14T09:16:06;95125.22;;;25.20;55.76
20027;BME280;10174;42.688;23.344;2023-06-14T09:18:43;95078.81;;;23.61;62.84
20027;BME280;10174;42.688;23.344;2023-06-14T09:21:11;95132.59;;;23.65;64.60
20027;BME280;10174;42.688;23.344;2023-06-14T09:23:41;95141.47;;;23.18;66.85
20027;BME280;10174;42.688;23.344;2023-06-14T09:26:17;95139.84;;;22.76;66.75
20027;BME280;10174;42.688;23.344;2023-06-14T09:28:46;95132.63;;;22.84;67.36
20027;BME280;10174;42.688;23.344;2023-06-14T09:31:20;95083.41;;;23.57;63.43
20027;BME280;10174;42.688;23.344;2023-06-14T09:33:47;95105.38;;;24.05;61.88
20027;BME280;10174;42.688;23.344;2023-06-14T09:36:24;95131.38;;;25.14;59.17
20027;BME280;10174;42.688;23.344;2023-06-14T09:38:53;95130.31;;;27.04;53.45
20027;BME280;10174;42.688;23.344;2023-06-14T09:41:19;95091.47;;;27.87;51.30
20027;BME280;10174;42.688;23.344;2023-06-14T09:43:46;95086.59;;;29.55;45.48
20027;BME280;10174;42.688;23.344;2023-06-14T09:46:13;95081.28;;;29.10;44.25
20027;BME280;10174;42.688;23.344;2023-06-14T09:48:38;95117.84;;;28.22;46.99
20027;BME280;10174;42.688;23.344;2023-06-14T09:51:10;95110.84;;;27.53;49.85
20027;BME280;10174;42.688;23.344;2023-06-14T09:53:39;95068.19;;;26.79;51.32
20027;BME280;10174;42.688;23.344;2023-06-14T09:56:06;95099.41;;;26.10;54.62
20027;BME280;10174;42.688;23.344;2023-06-14T09:58:35;95075.00;;;25.63;54.97
20027;BME280;10174;42.688;23.344;2023-06-14T10:01:02;95117.56;;;25.92;54.79
20027;BME280;10174;42.688;23.344;2023-06-14T10:03:30;95108.28;;;25.57;57.79
20027;BME280;10174;42.688;23.344;2023-06-14T10:06:00;95105.69;;;25.25;58.82
20027;BME280;10174;42.688;23.344;2023-06-14T10:08:30;94998.25;;;23.97;60.20
20027;BME280;10174;42.688;23.344;2023-06-14T10:10:57;95074.47;;;24.95;58.44
20027;BME280;10174;42.688;23.344;2023-06-14T10:13:23;95093.97;;;26.14;55.95
20027;BME280;10174;42.688;23.344;2023-06-14T10:18:53;95079.19;;;30.56;42.32
20027;BME280;10174;42.688;23.344;2023-06-14T10:24:29;95026.63;;;26.92;51.24
20027;BME280;10174;42.688;23.344;2023-06-14T10:26:57;95038.22;;;25.28;54.17
20027;BME280;10174;42.688;23.344;2023-06-14T10:29:23;95045.84;;;24.41;56.61
20027;BME280;10174;42.688;23.344;2023-06-14T10:31:50;95086.84;;;24.85;56.89
20027;BME280;10174;42.688;23.344;2023-06-14T10:34:28;95093.34;;;26.24;55.40
20027;BME280;10174;42.688;23.344;2023-06-14T10:39:29;95084.06;;;25.24;54.73
20027;BME280;10174;42.688;23.344;2023-06-14T10:41:56;94982.63;;;24.17;56.25
20027;BME280;10174;42.688;23.344;2023-06-14T10:46:54;95029.66;;;24.91;56.17
20027;BME280;10174;42.688;23.344;2023-06-14T10:49:20;95077.16;;;25.11;55.24
20027;BME280;10174;42.688;23.344;2023-06-14T10:52:02;95026.97;;;24.94;55.35
20027;BME280;10174;42.688;23.344;2023-06-14T10:54:28;95057.94;;;24.91;57.31
20027;BME280;10174;42.688;23.344;2023-06-14T10:56:53;95066.44;;;25.25;55.59
20027;BME280;10174;42.688;23.344;2023-06-14T10:59:20;95047.31;;;25.52;55.14
20027;BME280;10174;42.688;23.344;2023-06-14T11:01:58;95056.97;;;25.88;53.51
20027;BME280;10174;42.688;23.344;2023-06-14T11:04:47;95051.47;;;26.11;54.38
20027;BME280;10174;42.688;23.344;2023-06-14T11:07:42;95045.53;;;28.06;48.67
20027;BME280;10174;42.688;23.344;2023-06-14T11:10:33;95023.78;;;29.73;43.74
20027;BME280;10174;42.688;23.344;2023-06-14T11:13:01;95043.59;;;31.50;40.80
20027;BME280;10174;42.688;23.344;2023-06-14T11:15:32;95034.88;;;30.13;41.52
20027;BME280;10174;42.688;23.344;2023-06-14T11:18:00;95041.28;;;28.82;45.76
20027;BME280;10174;42.688;23.344;2023-06-14T11:20:26;95032.06;;;27.56;47.67
20027;BME280;10174;42.688;23.344;2023-06-14T11:22:53;95036.78;;;27.55;49.45
20027;BME280;10174;42.688;23.344;2023-06-14T11:25:19;95016.78;;;28.14;48.01
20027;BME280;10174;42.688;23.344;2023-06-14T11:27:45;94971.13;;;27.31;50.38
20027;BME280;10174;42.688;23.344;2023-06-14T11:30:12;94993.94;;;27.28;51.39
20027;BME280;10174;42.688;23.344;2023-06-14T11:32:39;95024.34;;;27.76;49.84
20027;BME280;10174;42.688;23.344;2023-06-14T11:35:06;95017.75;;;26.75;49.77
20027;BME280;10174;42.688;23.344;2023-06-14T11:37:32;95006.59;;;26.07;52.95
20027;BME280;10174;42.688;23.344;2023-06-14T11:40:03;95020.06;;;25.66;53.75
20027;BME280;10174;42.688;23.344;2023-06-14T11:42:31;95015.13;;;25.52;53.94
20027;BME280;10174;42.688;23.344;2023-06-14T11:44:57;95027.41;;;25.35;54.87
20027;BME280;10174;42.688;23.344;2023-06-14T11:47:22;95006.44;;;25.50;54.10
20027;BME280;10174;42.688;23.344;2023-06-14T11:49:48;94992.97;;;25.91;54.93
20027;BME280;10174;42.688;23.344;2023-06-14T11:52:14;94960.50;;;26.31;53.95
20027;BME280;10174;42.688;23.344;2023-06-14T11:54:39;95008.94;;;27.30;50.83
20027;BME280;10174;42.688;23.344;2023-06-14T11:57:09;95005.09;;;27.35;52.13
20027;BME280;10174;42.688;23.344;2023-06-14T11:59:39;95000.88;;;27.11;50.95
20027;BME280;10174;42.688;23.344;2023-06-14T12:02:05;94973.69;;;26.45;51.95
20027;BME280;10174;42.688;23.344;2023-06-14T12:04:31;94989.91;;;26.80;51.67
20027;BME280;10174;42.688;23.344;2023-06-14T12:06:57;94992.25;;;27.16;51.53
20027;BME280;10174;42.688;23.344;2023-06-14T12:09:23;94988.44;;;27.28;48.55
20027;BME280;10174;42.688;23.344;2023-06-14T12:11:51;94980.00;;;27.13;49.25
20027;BME280;10174;42.688;23.344;2023-06-14T12:14:29;94967.91;;;27.22;50.89
20027;BME280;10174;42.688;23.344;2023-06-14T12:17:06;94976.09;;;27.52;50.76
20027;BME280;10174;42.688;23.344;2023-06-14T12:19:32;94964.50;;;27.32;49.82
20027;BME280;10174;42.688;23.344;2023-06-14T12:21:59;94973.31;;;27.14;49.50
20027;BME280;10174;42.688;23.344;2023-06-14T12:24:29;94954.63;;;26.63;49.35
20027;BME280;10174;42.688;23.344;2023-06-14T12:26:57;94947.94;;;26.94;50.21
20027;BME280;10174;42.688;23.344;2023-06-14T12:29:24;94968.94;;;27.06;52.78
20027;BME280;10174;42.688;23.344;2023-06-14T12:31:50;94969.19;;;26.94;53.19
20027;BME280;10174;42.688;23.344;2023-06-14T12:34:16;94913.97;;;26.83;50.17
20027;BME280;10174;42.688;23.344;2023-06-14T12:36:41;94966.47;;;27.35;49.35
20027;BME280;10174;42.688;23.344;2023-06-14T12:39:07;94958.03;;;27.20;50.85
20027;BME280;10174;42.688;23.344;2023-06-14T12:41:33;94958.69;;;27.44;49.06
20027;BME280;10174;42.688;23.344;2023-06-14T12:43:59;94961.00;;;26.67;53.09
20027;BME280;10174;42.688;23.344;2023-06-14T12:46:26;94955.91;;;27.03;49.89
20027;BME280;10174;42.688;23.344;2023-06-14T12:48:51;94919.31;;;26.69;50.98
20027;BME280;10174;42.688;23.344;2023-06-14T12:51:17;94860.13;;;25.91;50.94
20027;BME280;10174;42.688;23.344;2023-06-14T12:53:42;94914.38;;;26.51;50.62
20027;BME280;10174;42.688;23.344;2023-06-14T12:56:09;94937.47;;;26.73;48.82
20027;BME280;10174;42.688;23.344;2023-06-14T12:58:34;94868.69;;;25.86;53.34